createdAt,value
2022-10-09T00:01:07.366Z,3.08
2022-10-09T00:03:35.319Z,3.03
2022-10-09T00:06:03.052Z,4.20
2022-10-09T00:08:30.297Z,2.75
2022-10-09T00:10:57.495Z,3.22
2022-10-09T00:13:24.427Z,3.33
2022-10-09T00:15:51.385Z,3.25
2022-10-09T00:18:19.036Z,3.22
2022-10-09T00:20:47.017Z,2.85
2022-10-09T00:23:16.606Z,2.65
2022-10-09T00:25:55.837Z,2.97
2022-10-09T00:28:24.265Z,2.42
2022-10-09T00:30:51.687Z,2.28
2022-10-09T00:33:19.725Z,2.85
2022-10-09T00:35:47.151Z,2.35
2022-10-09T00:38:14.321Z,2.80
2022-10-09T00:40:41.828Z,2.97
2022-10-09T00:43:19.036Z,3.40
2022-10-09T00:45:54.476Z,2.60
2022-10-09T00:48:22.918Z,3.13
2022-10-09T00:50:57.798Z,2.42
2022-10-09T00:53:28.269Z,2.92
2022-10-09T00:55:55.404Z,2.50
2022-10-09T00:58:23.667Z,2.95
2022-10-09T01:00:50.990Z,2.75
2022-10-09T01:03:18.075Z,3.08
2022-10-09T01:06:08.980Z,3.30
2022-10-09T01:08:49.618Z,2.40
2022-10-09T01:11:56.366Z,2.38
2022-10-09T01:14:28.522Z,2.55
2022-10-09T01:17:24.085Z,2.47
2022-10-09T01:20:23.178Z,2.42
2022-10-09T01:23:03.697Z,2.70
2022-10-09T01:25:35.330Z,2.55
2022-10-09T01:28:04.778Z,1.98
2022-10-09T01:30:32.863Z,2.30
2022-10-09T01:33:00.766Z,2.63
2022-10-09T01:35:29.113Z,2.10
2022-10-09T01:37:57.200Z,2.35
2022-10-09T01:40:26.576Z,2.42
2022-10-09T01:42:54.780Z,2.80
2022-10-09T01:45:23.961Z,2.45
2022-10-09T01:47:50.886Z,2.90
2022-10-09T01:50:32.711Z,1.95
2022-10-09T01:53:07.476Z,2.63
2022-10-09T01:55:43.508Z,2.15
2022-10-09T01:58:35.552Z,2.20
2022-10-09T02:01:10.975Z,1.95
2022-10-09T02:03:41.718Z,2.20
2022-10-09T02:06:11.235Z,2.20
2022-10-09T02:08:40.172Z,2.70
2022-10-09T02:11:07.557Z,1.98
2022-10-09T02:13:35.924Z,2.35
2022-10-09T02:16:24.992Z,2.75
2022-10-09T02:19:04.144Z,2.38
2022-10-09T02:21:50.313Z,1.88
2022-10-09T02:24:21.645Z,2.30
2022-10-09T02:26:49.531Z,1.85
2022-10-09T02:29:17.458Z,2.17
2022-10-09T02:31:44.766Z,2.45
2022-10-09T02:34:16.495Z,2.00
2022-10-09T02:36:43.447Z,2.30
2022-10-09T02:39:10.484Z,2.67
2022-10-09T02:41:37.640Z,2.72
2022-10-09T02:44:06.211Z,2.10
2022-10-09T02:46:33.867Z,1.55
2022-10-09T02:51:28.065Z,2.42
2022-10-09T02:53:55.992Z,2.33
2022-10-09T02:56:23.808Z,1.60
2022-10-09T03:01:18.233Z,1.55
2022-10-09T03:03:45.976Z,1.70
2022-10-09T03:08:43.801Z,2.20
2022-10-09T03:11:12.334Z,1.88
2022-10-09T03:13:39.811Z,2.05
2022-10-09T03:16:11.836Z,2.22
2022-10-09T03:18:39.453Z,2.08
2022-10-09T03:21:11.425Z,2.20
2022-10-09T03:23:38.811Z,2.95
2022-10-09T03:26:08.331Z,1.40
2022-10-09T03:28:40.486Z,2.15
2022-10-09T03:31:08.275Z,2.00
2022-10-09T03:36:04.426Z,1.55
2022-10-09T03:38:31.438Z,1.92
2022-10-09T03:40:59.857Z,1.45
2022-10-09T03:43:27.006Z,2.53
2022-10-09T03:45:53.948Z,2.25
2022-10-09T03:48:21.541Z,2.20
2022-10-09T03:50:49.021Z,2.08
2022-10-09T03:53:17.779Z,1.95
2022-10-09T03:55:45.043Z,2.40
2022-10-09T03:58:12.029Z,2.10
2022-10-09T04:00:39.413Z,1.98
2022-10-09T04:03:06.320Z,2.30
2022-10-09T04:05:34.803Z,1.65
2022-10-09T04:08:01.903Z,1.88
2022-10-09T04:10:29.020Z,1.50
2022-10-09T04:12:56.142Z,1.80
2022-10-09T04:15:23.004Z,2.15
2022-10-09T04:17:49.848Z,2.05
2022-10-09T04:20:16.957Z,2.00
2022-10-09T04:22:43.866Z,2.45
2022-10-09T04:25:11.056Z,2.10
2022-10-09T04:27:38.178Z,1.77
2022-10-09T04:30:06.574Z,2.10
2022-10-09T04:32:33.561Z,1.88
2022-10-09T04:35:00.641Z,2.28
2022-10-09T04:37:27.803Z,1.48
2022-10-09T04:39:54.813Z,2.88
2022-10-09T04:42:21.790Z,1.33
2022-10-09T04:44:48.803Z,1.83
2022-10-09T04:47:15.970Z,2.50
2022-10-09T04:49:42.851Z,1.90
2022-10-09T04:52:09.573Z,1.98
2022-10-09T04:54:36.438Z,1.77
2022-10-09T04:57:03.509Z,1.63
2022-10-09T04:59:30.481Z,1.85
2022-10-09T05:01:57.457Z,2.00
2022-10-09T05:04:24.683Z,2.17
2022-10-09T05:06:51.756Z,1.52
2022-10-09T05:09:19.348Z,1.88
2022-10-09T05:11:47.581Z,1.50
2022-10-09T05:14:14.522Z,1.90
2022-10-09T05:17:08.523Z,2.00
2022-10-09T05:19:28.406Z,2.17
2022-10-09T05:21:55.315Z,1.88
2022-10-09T05:24:22.269Z,2.75
2022-10-09T05:26:49.013Z,2.70
2022-10-09T05:29:16.319Z,1.98
2022-10-09T05:31:49.112Z,2.25
2022-10-09T05:34:16.793Z,2.10
2022-10-09T05:36:44.106Z,1.80
2022-10-09T05:39:11.393Z,2.10
2022-10-09T05:41:38.547Z,2.55
2022-10-09T05:44:05.695Z,1.73
2022-10-09T05:46:33.936Z,2.67
2022-10-09T05:49:08.068Z,1.85
2022-10-09T05:51:40.083Z,2.72
2022-10-09T05:54:07.202Z,2.80
2022-10-09T05:56:36.107Z,2.00
2022-10-09T05:59:06.399Z,1.98
2022-10-09T06:01:36.602Z,3.20
2022-10-09T06:04:06.308Z,2.15
2022-10-09T06:06:37.443Z,2.47
2022-10-09T06:09:05.241Z,2.50
2022-10-09T06:11:34.629Z,2.42
2022-10-09T06:14:03.747Z,2.33
2022-10-09T06:16:33.362Z,3.03
2022-10-09T06:19:00.999Z,2.58
2022-10-09T06:21:28.663Z,2.00
2022-10-09T06:23:59.037Z,2.65
2022-10-09T06:26:30.437Z,3.00
2022-10-09T06:28:59.548Z,2.38
2022-10-09T06:31:29.175Z,2.50
2022-10-09T06:33:58.053Z,2.47
2022-10-09T06:36:28.200Z,2.58
2022-10-09T06:38:55.306Z,2.65
2022-10-09T06:41:25.606Z,3.35
2022-10-09T06:43:58.221Z,2.50
2022-10-09T06:46:34.055Z,2.58
2022-10-09T06:49:01.513Z,2.10
2022-10-09T06:51:29.564Z,1.95
2022-10-09T06:53:59.337Z,2.45
2022-10-09T06:56:28.311Z,2.35
2022-10-09T06:58:55.468Z,2.00
2022-10-09T07:01:27.356Z,2.85
2022-10-09T07:04:00.095Z,2.53
2022-10-09T07:06:30.110Z,1.65
2022-10-09T07:09:12.528Z,2.17
2022-10-09T07:11:49.379Z,2.03
2022-10-09T07:14:17.393Z,2.60
2022-10-09T07:19:14.681Z,1.80
2022-10-09T07:21:44.482Z,1.70
2022-10-09T07:24:13.167Z,2.00
2022-10-09T07:26:43.748Z,1.48
2022-10-09T07:29:13.148Z,2.10
2022-10-09T07:31:40.167Z,1.80
2022-10-09T07:34:07.910Z,1.98
2022-10-09T07:39:03.812Z,1.33
2022-10-09T07:41:31.192Z,1.42
2022-10-09T07:43:58.843Z,1.13
2022-10-09T07:46:32.942Z,1.40
2022-10-09T07:49:01.437Z,1.92
2022-10-09T07:51:29.682Z,1.85
2022-10-09T07:53:57.834Z,2.38
2022-10-09T07:56:29.002Z,1.70
2022-10-09T07:59:01.877Z,1.58
2022-10-09T08:01:30.664Z,1.40
2022-10-09T08:03:58.659Z,1.23
2022-10-09T08:06:25.942Z,2.60
2022-10-09T08:08:54.762Z,1.35
2022-10-09T08:11:23.726Z,1.20
2022-10-09T08:13:52.046Z,1.88
2022-10-09T08:16:20.623Z,1.55
2022-10-09T08:18:48.149Z,1.33
2022-10-09T08:21:18.642Z,1.40
2022-10-09T08:23:46.003Z,1.20
2022-10-09T08:26:19.151Z,1.65
2022-10-09T08:29:00.389Z,1.30
2022-10-09T08:31:28.622Z,1.30
2022-10-09T08:33:58.203Z,1.00
2022-10-09T08:36:26.209Z,0.88
2022-10-09T08:38:53.124Z,2.17
2022-10-09T08:41:23.265Z,1.75
2022-10-09T08:43:56.261Z,1.45
2022-10-09T08:46:30.847Z,1.70
2022-10-09T08:49:00.237Z,1.48
2022-10-09T08:51:33.441Z,0.73
2022-10-09T08:54:23.929Z,1.30
2022-10-09T08:56:52.533Z,1.38
2022-10-09T08:59:19.772Z,1.80
2022-10-09T09:02:03.887Z,1.58
2022-10-09T09:04:52.422Z,1.60
2022-10-09T09:07:40.838Z,1.60
2022-10-09T09:10:21.918Z,1.45
2022-10-09T09:12:52.163Z,1.88
2022-10-09T09:15:55.620Z,1.73
2022-10-09T09:18:43.125Z,2.20
2022-10-09T09:21:32.373Z,1.63
2022-10-09T09:24:03.069Z,2.67
2022-10-09T09:26:30.353Z,2.08
2022-10-09T09:29:01.951Z,2.53
2022-10-09T09:31:36.800Z,2.92
2022-10-09T09:34:22.820Z,2.08
2022-10-09T09:36:57.229Z,1.42
2022-10-09T09:42:20.048Z,1.55
2022-10-09T09:45:00.345Z,1.30
2022-10-09T09:47:36.211Z,1.65
2022-10-09T09:50:05.474Z,2.00
2022-10-09T09:52:37.377Z,1.83
2022-10-09T09:55:05.323Z,0.70
2022-10-09T09:57:39.516Z,1.00
2022-10-09T10:00:17.044Z,1.83
2022-10-09T10:02:44.288Z,1.48
2022-10-09T10:05:35.832Z,1.60
2022-10-09T10:09:02.788Z,1.88
2022-10-09T10:11:45.403Z,0.88
2022-10-09T10:14:17.182Z,1.50
2022-10-09T10:16:48.045Z,1.33
2022-10-09T10:19:24.636Z,1.75
2022-10-09T10:22:03.951Z,1.20
2022-10-09T10:24:43.128Z,1.50
2022-10-09T10:27:34.032Z,1.77
2022-10-09T10:30:05.126Z,1.83
2022-10-09T10:32:42.672Z,1.23
2022-10-09T10:35:21.065Z,1.55
2022-10-09T10:38:01.826Z,1.20
2022-10-09T10:40:33.626Z,1.40
2022-10-09T10:43:09.895Z,1.40
2022-10-09T10:46:13.161Z,2.03
2022-10-09T10:48:47.211Z,1.55
2022-10-09T10:51:27.241Z,0.95
2022-10-09T10:54:03.652Z,1.17
2022-10-09T10:57:07.318Z,0.93
2022-10-09T10:59:39.829Z,1.92
2022-10-09T11:02:10.128Z,1.38
2022-10-09T11:05:01.282Z,0.75
2022-10-09T11:07:44.577Z,1.73
2022-10-09T11:10:27.705Z,1.85
2022-10-09T11:13:00.894Z,1.52
2022-10-09T11:15:37.840Z,2.08
2022-10-09T11:18:43.590Z,2.20
2022-10-09T11:21:45.704Z,1.95
2022-10-09T11:24:31.537Z,1.50
2022-10-09T11:27:13.484Z,1.70
2022-10-09T11:29:48.223Z,1.80
2022-10-09T11:32:23.122Z,1.60
2022-10-09T11:35:00.356Z,1.30
2022-10-09T11:37:35.171Z,2.17
2022-10-09T11:40:22.089Z,2.33
2022-10-09T11:43:00.775Z,1.90
2022-10-09T11:45:43.030Z,1.60
2022-10-09T11:48:27.865Z,1.50
2022-10-09T11:51:27.088Z,1.42
2022-10-09T11:53:55.226Z,1.50
2022-10-09T11:56:32.242Z,0.98
2022-10-09T11:59:07.244Z,1.35
2022-10-09T12:01:44.437Z,0.22
2022-10-09T12:04:20.832Z,1.30
2022-10-09T12:07:03.795Z,1.63
2022-10-09T12:09:43.467Z,1.40
2022-10-09T12:12:16.937Z,1.10
2022-10-09T12:14:46.974Z,1.38
2022-10-09T12:17:23.348Z,1.67
2022-10-09T12:20:03.992Z,1.17
2022-10-09T12:22:41.553Z,1.60
2022-10-09T12:25:30.793Z,0.90
2022-10-09T12:28:00.367Z,1.45
2022-10-09T12:30:36.719Z,1.52
2022-10-09T12:33:22.672Z,1.40
2022-10-09T12:36:06.690Z,1.23
2022-10-09T12:38:33.800Z,0.73
2022-10-09T12:41:07.132Z,0.30
2022-10-09T12:43:35.074Z,1.30
2022-10-09T12:46:02.803Z,1.02
2022-10-09T12:48:35.889Z,1.45
2022-10-09T12:51:02.920Z,0.77
2022-10-09T12:53:30.542Z,1.02
2022-10-09T12:58:31.645Z,1.48
2022-10-09T13:01:02.125Z,1.40
2022-10-09T13:03:44.111Z,1.10
2022-10-09T13:06:17.206Z,0.93
2022-10-09T13:08:45.707Z,1.05
2022-10-09T13:11:32.828Z,1.10
2022-10-09T13:14:00.299Z,1.30
2022-10-09T13:19:35.234Z,0.95
2022-10-09T13:24:36.344Z,1.80
2022-10-09T13:27:05.009Z,1.00
2022-10-09T13:29:32.183Z,0.82
2022-10-09T13:31:59.304Z,1.58
2022-10-09T13:34:29.161Z,2.10
2022-10-09T13:36:57.079Z,1.60
2022-10-09T13:39:26.774Z,1.30
2022-10-09T13:41:55.665Z,1.60
2022-10-09T13:44:23.179Z,1.00
2022-10-09T13:46:50.321Z,1.27
2022-10-09T13:49:17.269Z,1.73
2022-10-09T13:51:44.290Z,1.83
2022-10-09T13:54:11.425Z,1.23
2022-10-09T13:56:38.541Z,1.83
2022-10-09T13:59:08.355Z,3.35
2022-10-09T14:01:35.568Z,1.52
2022-10-09T14:04:02.622Z,1.20
2022-10-09T14:06:29.727Z,1.85
2022-10-09T14:08:57.408Z,2.10
2022-10-09T14:11:24.532Z,2.03
2022-10-09T14:13:51.306Z,1.10
2022-10-09T14:16:18.200Z,3.00
2022-10-09T14:18:45.026Z,0.82
2022-10-09T14:21:15.552Z,1.10
2022-10-09T14:23:43.453Z,1.20
2022-10-09T14:26:10.811Z,1.70
2022-10-09T14:28:38.035Z,1.52
2022-10-09T14:31:06.642Z,1.23
2022-10-09T14:33:33.995Z,1.52
2022-10-09T14:36:13.027Z,0.65
2022-10-09T14:38:40.500Z,0.75
2022-10-09T14:43:36.434Z,1.00
2022-10-09T14:46:05.606Z,1.33
2022-10-09T14:48:34.271Z,1.42
2022-10-09T14:51:06.623Z,1.50
2022-10-09T14:53:34.077Z,1.80
2022-10-09T14:56:05.760Z,1.83
2022-10-09T14:58:36.510Z,1.20
2022-10-09T15:01:03.786Z,1.08
2022-10-09T15:03:31.501Z,1.13
2022-10-09T15:06:03.411Z,1.30
2022-10-09T15:08:32.516Z,0.77
2022-10-09T15:10:59.586Z,1.08
2022-10-09T15:13:26.777Z,1.40
2022-10-09T15:16:02.329Z,1.50
2022-10-09T15:18:30.149Z,1.15
2022-10-09T15:23:27.824Z,1.00
2022-10-09T15:25:58.418Z,1.00
2022-10-09T15:28:26.498Z,1.10
2022-10-09T15:30:57.416Z,1.55
2022-10-09T15:33:25.026Z,1.33
2022-10-09T15:35:53.360Z,1.25
2022-10-09T15:38:23.236Z,0.82
2022-10-09T15:40:52.552Z,0.85
2022-10-09T15:43:22.543Z,1.00
2022-10-09T15:45:50.235Z,0.73
2022-10-09T15:48:23.475Z,1.00
2022-10-09T15:50:53.555Z,0.80
2022-10-09T15:53:23.908Z,1.13
2022-10-09T15:55:52.938Z,1.30
2022-10-09T15:58:20.343Z,0.93
2022-10-09T16:00:49.948Z,0.90
2022-10-09T16:03:18.051Z,0.80
2022-10-09T16:05:51.148Z,1.10
2022-10-09T16:08:19.129Z,1.10
2022-10-09T16:10:49.447Z,0.90
2022-10-09T16:13:16.998Z,1.20
2022-10-09T16:15:48.207Z,1.55
2022-10-09T16:18:17.350Z,1.35
2022-10-09T16:20:44.822Z,1.75
2022-10-09T16:25:42.197Z,1.90
2022-10-09T16:28:11.384Z,2.05
2022-10-09T16:30:43.598Z,2.38
2022-10-09T16:33:12.895Z,1.65
2022-10-09T16:35:40.623Z,1.20
2022-10-09T16:38:07.586Z,1.60
2022-10-09T16:41:01.002Z,1.30
2022-10-09T16:43:22.062Z,1.30
2022-10-09T16:45:48.995Z,1.67
2022-10-09T16:48:16.179Z,1.30
2022-10-09T16:50:43.682Z,1.08
2022-10-09T16:55:37.821Z,1.55
2022-10-09T16:58:07.676Z,1.20
2022-10-09T17:00:37.216Z,1.77
2022-10-09T17:03:04.594Z,1.70
2022-10-09T17:05:31.436Z,2.72
2022-10-09T17:07:58.489Z,1.73
2022-10-09T17:10:25.369Z,1.67
2022-10-09T17:12:52.454Z,1.88
2022-10-09T17:15:19.171Z,1.55
2022-10-09T17:17:46.370Z,1.40
2022-10-09T17:20:13.465Z,1.55
2022-10-09T17:22:40.332Z,1.88
2022-10-09T17:25:07.793Z,1.67
2022-10-09T17:27:34.672Z,4.82
2022-10-09T17:30:01.449Z,3.40
2022-10-09T17:32:28.399Z,2.72
2022-10-09T17:34:55.786Z,1.30
2022-10-09T17:37:22.808Z,1.40
2022-10-09T17:39:52.238Z,1.73
2022-10-09T17:42:19.453Z,1.52
2022-10-09T17:44:46.307Z,2.22
2022-10-09T17:47:13.115Z,2.35
2022-10-09T17:49:39.886Z,2.20
2022-10-09T17:52:06.759Z,2.08
2022-10-09T17:54:33.844Z,1.85
2022-10-09T17:57:01.593Z,2.35
2022-10-09T17:59:28.835Z,2.22
2022-10-09T18:01:55.775Z,2.42
2022-10-09T18:04:22.848Z,2.25
2022-10-09T18:06:51.213Z,3.88
2022-10-09T18:09:18.212Z,3.72
2022-10-09T18:11:45.395Z,2.28
2022-10-09T18:14:12.604Z,2.28
2022-10-09T18:16:41.053Z,1.52
2022-10-09T18:19:18.570Z,1.25
2022-10-09T18:24:14.694Z,1.60
2022-10-09T18:26:42.084Z,1.42
2022-10-09T18:29:09.491Z,1.30
2022-10-09T18:31:38.555Z,1.25
2022-10-09T18:34:05.872Z,1.80
2022-10-09T18:36:34.526Z,1.23
2022-10-09T18:39:13.353Z,1.52
2022-10-09T18:41:41.335Z,1.23
2022-10-09T18:44:12.776Z,1.33
2022-10-09T18:46:42.812Z,1.20
2022-10-09T18:49:13.627Z,1.27
2022-10-09T18:51:42.517Z,0.90
2022-10-09T18:54:17.941Z,1.10
2022-10-09T18:56:46.304Z,0.90
2022-10-09T19:01:49.071Z,0.85
2022-10-09T19:04:16.097Z,1.38
2022-10-09T19:06:43.001Z,1.60
2022-10-09T19:09:10.240Z,1.35
2022-10-09T19:11:37.583Z,1.00
2022-10-09T19:14:05.525Z,1.20
2022-10-09T19:16:34.605Z,1.00
2022-10-09T19:19:01.837Z,1.30
2022-10-09T19:21:28.819Z,0.90
2022-10-09T19:23:55.811Z,1.20
2022-10-09T19:26:23.316Z,1.00
2022-10-09T19:28:50.310Z,1.55
2022-10-09T19:31:18.304Z,1.55
2022-10-09T19:33:45.009Z,1.52
2022-10-09T19:36:13.711Z,2.17
2022-10-09T19:38:41.540Z,1.30
2022-10-09T19:41:14.109Z,1.50
2022-10-09T19:43:41.932Z,1.35
2022-10-09T19:48:37.430Z,1.52
2022-10-09T19:53:33.067Z,1.50
2022-10-09T19:55:59.936Z,1.50
2022-10-09T19:58:26.883Z,1.65
2022-10-09T20:00:53.780Z,1.80
2022-10-09T20:03:20.791Z,1.70
2022-10-09T20:05:47.690Z,1.85
2022-10-09T20:08:15.131Z,1.42
2022-10-09T20:10:42.035Z,2.55
2022-10-09T20:13:08.991Z,2.00
2022-10-09T20:15:35.848Z,1.60
2022-10-09T20:18:02.910Z,2.50
2022-10-09T20:20:30.076Z,1.92
2022-10-09T20:22:59.957Z,1.80
2022-10-09T20:25:27.669Z,2.20
2022-10-09T20:30:21.644Z,1.83
2022-10-09T20:32:49.415Z,1.52
2022-10-09T20:37:43.577Z,1.70
2022-10-09T20:40:10.453Z,1.42
2022-10-09T20:42:37.318Z,1.65
2022-10-09T20:45:04.976Z,2.80
2022-10-09T20:47:32.011Z,1.92
2022-10-09T20:49:58.910Z,2.08
2022-10-09T20:52:26.112Z,2.15
2022-10-09T20:54:52.965Z,1.90
2022-10-09T20:57:23.808Z,2.03
2022-10-09T20:59:50.991Z,2.22
2022-10-09T21:02:18.016Z,2.10
2022-10-09T21:04:46.000Z,2.50
2022-10-09T21:07:12.875Z,2.70
2022-10-09T21:09:39.692Z,2.33
2022-10-09T21:12:07.034Z,2.13
2022-10-09T21:14:36.749Z,2.17
2022-10-09T21:17:03.828Z,2.35
2022-10-09T21:19:30.957Z,2.10
2022-10-09T21:21:57.927Z,2.47
2022-10-09T21:24:24.944Z,2.03
2022-10-09T21:26:51.613Z,1.73
2022-10-09T21:29:18.291Z,2.70
2022-10-09T21:31:45.035Z,1.75
2022-10-09T21:34:13.904Z,2.08
2022-10-09T21:37:08.982Z,1.67
2022-10-09T21:39:33.702Z,2.22
2022-10-09T21:42:00.401Z,1.50
2022-10-09T21:44:27.523Z,1.73
2022-10-09T21:46:54.304Z,2.22
2022-10-09T21:49:23.638Z,1.83
2022-10-09T21:51:50.708Z,2.05
2022-10-09T21:54:17.668Z,1.92
2022-10-09T21:56:44.543Z,2.38
2022-10-09T21:59:11.652Z,2.23
2022-10-09T22:01:38.373Z,2.13
2022-10-09T22:04:05.185Z,1.93
2022-10-09T22:06:31.852Z,2.53
2022-10-09T22:08:59.824Z,1.85
2022-10-09T22:11:27.045Z,2.00
2022-10-09T22:13:55.862Z,2.15
2022-10-09T22:16:23.041Z,1.88
2022-10-09T22:18:49.742Z,2.17
2022-10-09T22:21:17.210Z,2.58
2022-10-09T22:23:44.314Z,2.22
2022-10-09T22:26:14.094Z,2.33
2022-10-09T22:28:40.899Z,2.25
2022-10-09T22:31:21.193Z,2.43
2022-10-09T22:33:53.297Z,2.38
2022-10-09T22:36:22.278Z,2.53
2022-10-09T22:38:49.025Z,2.17
2022-10-09T22:41:20.670Z,2.57
2022-10-09T22:43:50.269Z,2.50
2022-10-09T22:46:19.339Z,2.17
2022-10-09T22:48:46.599Z,2.50
2022-10-09T22:51:16.649Z,1.88
2022-10-09T22:53:44.520Z,2.10
2022-10-09T22:56:20.367Z,2.08
2022-10-09T22:58:48.197Z,2.13
2022-10-09T23:01:36.721Z,1.92
2022-10-09T23:04:10.402Z,1.98
2022-10-09T23:06:38.250Z,1.95
2022-10-09T23:11:34.043Z,1.38
2022-10-09T23:14:01.565Z,2.00
2022-10-09T23:16:29.695Z,2.38
2022-10-09T23:18:58.032Z,1.75
2022-10-09T23:21:25.623Z,2.30
2022-10-09T23:23:53.613Z,1.52
2022-10-09T23:26:23.068Z,1.92
2022-10-09T23:28:58.697Z,2.42
2022-10-09T23:31:26.287Z,2.13
2022-10-09T23:33:53.181Z,2.20
2022-10-09T23:36:22.619Z,2.53
2022-10-09T23:38:49.772Z,1.88
2022-10-09T23:41:19.952Z,2.35
2022-10-09T23:43:47.808Z,1.85
2022-10-09T23:46:21.587Z,2.38
2022-10-09T23:48:49.558Z,2.35
2022-10-09T23:51:18.218Z,2.20
2022-10-09T23:53:44.991Z,2.80
2022-10-09T23:56:18.108Z,2.90
2022-10-09T23:58:44.990Z,2.85
